sensor_id;sensor_type;location;lat;lon;timestamp;pressure;altitude;pressure_sealevel;temperature;humidity
57628;BME280;43451;49.060;10.616;2023-02-21T00:00:57;97196.88;;;3.09;100.00
57628;BME280;43451;49.060;10.616;2023-02-21T00:03:41;97195.28;;;2.95;100.00
57628;BME280;43451;49.060;10.616;2023-02-21T00:06:25;97181.56;;;3.09;100.00
57628;BME280;43451;49.060;10.616;2023-02-21T00:09:08;97183.09;;;2.77;100.00
57628;BME280;43451;49.060;10.616;2023-02-21T00:11:53;97187.41;;;2.69;100.00
57628;BME280;43451;49.060;10.616;2023-02-21T00:14:37;97188.59;;;2.81;100.00
57628;BME280;43451;49.060;10.616;2023-02-21T00:17:22;97192.28;;;2.55;100.00
57628;BME280;43451;49.060;10.616;2023-02-21T00:20:06;97184.53;;;2.74;100.00
57628;BME280;43451;49.060;10.616;2023-02-21T00:22:50;97183.03;;;2.86;100.00
57628;BME280;43451;49.060;10.616;2023-02-21T00:25:34;97190.69;;;2.75;100.00
57628;BME280;43451;49.060;10.616;2023-02-21T00:28:18;97190.72;;;2.54;100.00
57628;BME280;43451;49.060;10.616;2023-02-21T00:31:02;97176.28;;;2.38;100.00
57628;BME280;43451;49.060;10.616;2023-02-21T00:33:46;97196.22;;;2.28;100.00
57628;BME280;43451;49.060;10.616;2023-02-21T00:36:30;97187.31;;;2.15;100.00
57628;BME280;43451;49.060;10.616;2023-02-21T00:39:14;97184.75;;;1.98;100.00
57628;BME280;43451;49.060;10.616;2023-02-21T00:41:58;97182.91;;;1.90;100.00
57628;BME280;43451;49.060;10.616;2023-02-21T00:44:42;97177.75;;;1.84;100.00
57628;BME280;43451;49.060;10.616;2023-02-21T00:47:26;97178.06;;;1.74;100.00
57628;BME280;43451;49.060;10.616;2023-02-21T00:50:11;97165.34;;;1.71;100.00
57628;BME280;43451;49.060;10.616;2023-02-21T00:52:56;97161.69;;;1.76;100.00
57628;BME280;43451;49.060;10.616;2023-02-21T00:55:40;97165.81;;;1.73;100.00
57628;BME280;43451;49.060;10.616;2023-02-21T00:58:24;97165.13;;;1.85;100.00
57628;BME280;43451;49.060;10.616;2023-02-21T01:01:08;97150.94;;;1.84;100.00
57628;BME280;43451;49.060;10.616;2023-02-21T01:03:51;97142.91;;;1.84;100.00
57628;BME280;43451;49.060;10.616;2023-02-21T01:06:35;97147.44;;;1.63;100.00
57628;BME280;43451;49.060;10.616;2023-02-21T01:09:19;97146.53;;;1.50;100.00
57628;BME280;43451;49.060;10.616;2023-02-21T01:12:03;97146.84;;;1.49;100.00
57628;BME280;43451;49.060;10.616;2023-02-21T01:14:48;97141.16;;;1.59;100.00
57628;BME280;43451;49.060;10.616;2023-02-21T01:17:32;97149.94;;;1.68;100.00
57628;BME280;43451;49.060;10.616;2023-02-21T01:20:16;97139.75;;;1.82;100.00
57628;BME280;43451;49.060;10.616;2023-02-21T01:22:59;97138.91;;;2.20;100.00
57628;BME280;43451;49.060;10.616;2023-02-21T01:25:43;97134.13;;;2.05;100.00
57628;BME280;43451;49.060;10.616;2023-02-21T01:28:27;97151.59;;;1.81;100.00
57628;BME280;43451;49.060;10.616;2023-02-21T01:31:17;97146.41;;;1.47;100.00
57628;BME280;43451;49.060;10.616;2023-02-21T01:34:01;97147.84;;;1.35;100.00
57628;BME280;43451;49.060;10.616;2023-02-21T01:36:45;97148.31;;;1.37;100.00
57628;BME280;43451;49.060;10.616;2023-02-21T01:39:29;97145.88;;;1.62;100.00
57628;BME280;43451;49.060;10.616;2023-02-21T01:42:13;97133.47;;;1.49;100.00
57628;BME280;43451;49.060;10.616;2023-02-21T01:48:14;97137.38;;;1.60;100.00
57628;BME280;43451;49.060;10.616;2023-02-21T01:51:00;97138.91;;;1.31;100.00
57628;BME280;43451;49.060;10.616;2023-02-21T01:53:46;97143.16;;;1.24;100.00
57628;BME280;43451;49.060;10.616;2023-02-21T01:56:30;97126.84;;;1.08;100.00
57628;BME280;43451;49.060;10.616;2023-02-21T01:59:16;97134.69;;;1.22;100.00
57628;BME280;43451;49.060;10.616;2023-02-21T02:02:06;97118.34;;;1.06;100.00
57628;BME280;43451;49.060;10.616;2023-02-21T02:04:53;97128.78;;;0.99;100.00
57628;BME280;43451;49.060;10.616;2023-02-21T02:07:38;97127.22;;;0.80;100.00
57628;BME280;43451;49.060;10.616;2023-02-21T02:10:22;97121.22;;;0.92;100.00
57628;BME280;43451;49.060;10.616;2023-02-21T02:13:28;97123.09;;;0.91;100.00
57628;BME280;43451;49.060;10.616;2023-02-21T02:16:29;97123.09;;;0.91;100.00
57628;BME280;43451;49.060;10.616;2023-02-21T02:30:52;97132.88;;;0.87;100.00
57628;BME280;43451;49.060;10.616;2023-02-21T02:35:44;97128.31;;;0.88;100.00
57628;BME280;43451;49.060;10.616;2023-02-21T02:38:36;97118.72;;;0.78;100.00
57628;BME280;43451;49.060;10.616;2023-02-21T02:41:16;97123.19;;;0.39;100.00
57628;BME280;43451;49.060;10.616;2023-02-21T02:44:05;97123.50;;;0.29;100.00
57628;BME280;43451;49.060;10.616;2023-02-21T02:46:37;97129.78;;;0.33;100.00
57628;BME280;43451;49.060;10.616;2023-02-21T02:49:19;97129.44;;;0.35;100.00
57628;BME280;43451;49.060;10.616;2023-02-21T02:51:47;97128.03;;;0.37;100.00
57628;BME280;43451;49.060;10.616;2023-02-21T02:54:12;97120.34;;;0.44;100.00
57628;BME280;43451;49.060;10.616;2023-02-21T02:56:38;97116.25;;;0.47;100.00
57628;BME280;43451;49.060;10.616;2023-02-21T02:59:14;97119.53;;;0.44;100.00
57628;BME280;43451;49.060;10.616;2023-02-21T03:12:54;97116.25;;;0.04;100.00
57628;BME280;43451;49.060;10.616;2023-02-21T03:15:50;97110.28;;;0.07;100.00
57628;BME280;43451;49.060;10.616;2023-02-21T03:18:22;97112.97;;;0.07;100.00
57628;BME280;43451;49.060;10.616;2023-02-21T03:20:57;97108.69;;;0.06;100.00
57628;BME280;43451;49.060;10.616;2023-02-21T03:23:27;97109.50;;;-0.03;100.00
57628;BME280;43451;49.060;10.616;2023-02-21T03:25:57;97109.81;;;0.05;100.00
57628;BME280;43451;49.060;10.616;2023-02-21T03:28:24;97114.19;;;0.09;100.00
57628;BME280;43451;49.060;10.616;2023-02-21T03:30:52;97107.13;;;0.22;100.00
57628;BME280;43451;49.060;10.616;2023-02-21T03:33:20;97104.31;;;0.27;100.00
57628;BME280;43451;49.060;10.616;2023-02-21T03:35:47;97101.66;;;0.36;100.00
57628;BME280;43451;49.060;10.616;2023-02-21T03:38:12;97104.00;;;0.37;100.00
57628;BME280;43451;49.060;10.616;2023-02-21T03:40:38;97096.13;;;0.50;100.00
57628;BME280;43451;49.060;10.616;2023-02-21T03:43:04;97103.22;;;0.37;100.00
57628;BME280;43451;49.060;10.616;2023-02-21T03:45:34;97104.47;;;0.39;100.00
57628;BME280;43451;49.060;10.616;2023-02-21T03:47:59;97100.22;;;0.56;100.00
57628;BME280;43451;49.060;10.616;2023-02-21T03:50:25;97095.66;;;0.56;100.00
57628;BME280;43451;49.060;10.616;2023-02-21T03:52:51;97101.75;;;0.57;100.00
57628;BME280;43451;49.060;10.616;2023-02-21T03:55:17;97101.31;;;0.46;100.00
57628;BME280;43451;49.060;10.616;2023-02-21T03:57:42;97107.44;;;0.64;100.00
57628;BME280;43451;49.060;10.616;2023-02-21T04:00:09;97114.66;;;0.63;100.00
57628;BME280;43451;49.060;10.616;2023-02-21T04:02:35;97109.16;;;0.68;100.00
57628;BME280;43451;49.060;10.616;2023-02-21T04:05:00;97102.41;;;0.54;100.00
57628;BME280;43451;49.060;10.616;2023-02-21T04:07:26;97099.09;;;0.57;100.00
57628;BME280;43451;49.060;10.616;2023-02-21T04:09:52;97103.47;;;0.79;100.00
57628;BME280;43451;49.060;10.616;2023-02-21T04:12:17;97108.16;;;0.99;100.00
57628;BME280;43451;49.060;10.616;2023-02-21T04:14:43;97109.66;;;1.18;100.00
57628;BME280;43451;49.060;10.616;2023-02-21T04:17:08;97115.56;;;0.93;100.00
57628;BME280;43451;49.060;10.616;2023-02-21T04:19:34;97118.91;;;0.73;100.00
57628;BME280;43451;49.060;10.616;2023-02-21T04:21:59;97108.84;;;0.53;100.00
57628;BME280;43451;49.060;10.616;2023-02-21T04:24:25;97110.44;;;0.36;100.00
57628;BME280;43451;49.060;10.616;2023-02-21T04:26:50;97119.72;;;0.30;100.00
57628;BME280;43451;49.060;10.616;2023-02-21T04:29:16;97120.50;;;0.31;100.00
57628;BME280;43451;49.060;10.616;2023-02-21T04:31:41;97123.94;;;0.31;100.00
57628;BME280;43451;49.060;10.616;2023-02-21T04:34:07;97121.28;;;0.31;100.00
57628;BME280;43451;49.060;10.616;2023-02-21T04:36:32;97126.78;;;0.26;100.00
57628;BME280;43451;49.060;10.616;2023-02-21T04:38:58;97117.19;;;0.25;100.00
57628;BME280;43451;49.060;10.616;2023-02-21T04:41:23;97114.03;;;0.40;100.00
57628;BME280;43451;49.060;10.616;2023-02-21T04:43:49;97107.94;;;0.22;100.00
57628;BME280;43451;49.060;10.616;2023-02-21T04:46:16;97109.31;;;0.03;100.00
57628;BME280;43451;49.060;10.616;2023-02-21T04:48:46;97117.66;;;0.01;100.00
57628;BME280;43451;49.060;10.616;2023-02-21T04:51:13;97115.31;;;0.17;100.00
57628;BME280;43451;49.060;10.616;2023-02-21T04:53:39;97121.13;;;0.36;100.00
57628;BME280;43451;49.060;10.616;2023-02-21T04:56:05;97133.06;;;0.21;100.00
57628;BME280;43451;49.060;10.616;2023-02-21T04:58:31;97124.59;;;0.11;100.00
57628;BME280;43451;49.060;10.616;2023-02-21T05:00:56;97132.09;;;-0.09;100.00
57628;BME280;43451;49.060;10.616;2023-02-21T05:03:22;97126.09;;;-0.23;100.00
57628;BME280;43451;49.060;10.616;2023-02-21T05:05:49;97123.72;;;-0.33;100.00
57628;BME280;43451;49.060;10.616;2023-02-21T05:08:14;97127.75;;;-0.44;100.00
57628;BME280;43451;49.060;10.616;2023-02-21T05:10:40;97129.34;;;-0.43;100.00
57628;BME280;43451;49.060;10.616;2023-02-21T05:13:05;97133.91;;;-0.44;100.00
57628;BME280;43451;49.060;10.616;2023-02-21T05:15:31;97128.25;;;-0.42;100.00
57628;BME280;43451;49.060;10.616;2023-02-21T05:17:56;97128.44;;;-0.30;100.00
57628;BME280;43451;49.060;10.616;2023-02-21T05:20:21;97131.59;;;-0.28;100.00
57628;BME280;43451;49.060;10.616;2023-02-21T05:22:48;97128.09;;;-0.37;100.00
57628;BME280;43451;49.060;10.616;2023-02-21T05:25:18;97130.91;;;-0.42;100.00
57628;BME280;43451;49.060;10.616;2023-02-21T05:27:45;97117.19;;;-0.58;100.00
57628;BME280;43451;49.060;10.616;2023-02-21T05:30:12;97117.66;;;-0.65;100.00
57628;BME280;43451;49.060;10.616;2023-02-21T05:32:38;97119.56;;;-0.57;100.00
57628;BME280;43451;49.060;10.616;2023-02-21T05:35:03;97115.50;;;-0.45;100.00
57628;BME280;43451;49.060;10.616;2023-02-21T05:37:29;97126.88;;;-0.31;100.00
57628;BME280;43451;49.060;10.616;2023-02-21T05:39:54;97100.97;;;-0.31;100.00
57628;BME280;43451;49.060;10.616;2023-02-21T05:42:20;97104.06;;;-0.46;100.00
57628;BME280;43451;49.060;10.616;2023-02-21T05:44:46;97099.63;;;-0.59;100.00
57628;BME280;43451;49.060;10.616;2023-02-21T05:47:13;97105.41;;;-0.66;100.00
57628;BME280;43451;49.060;10.616;2023-02-21T05:49:40;97103.50;;;-0.74;100.00
57628;BME280;43451;49.060;10.616;2023-02-21T05:52:06;97103.25;;;-0.95;100.00
57628;BME280;43451;49.060;10.616;2023-02-21T05:54:31;97101.63;;;-1.05;100.00
57628;BME280;43451;49.060;10.616;2023-02-21T05:56:57;97097.28;;;-1.01;100.00
57628;BME280;43451;49.060;10.616;2023-02-21T05:59:22;97088.13;;;-1.08;100.00
57628;BME280;43451;49.060;10.616;2023-02-21T06:01:49;97092.22;;;-1.02;100.00
57628;BME280;43451;49.060;10.616;2023-02-21T06:04:18;97090.72;;;-0.95;100.00
57628;BME280;43451;49.060;10.616;2023-02-21T06:06:44;97092.75;;;-0.91;100.00
57628;BME280;43451;49.060;10.616;2023-02-21T06:09:10;97093.28;;;-0.81;100.00
57628;BME280;43451;49.060;10.616;2023-02-21T06:11:36;97094.09;;;-0.72;100.00
57628;BME280;43451;49.060;10.616;2023-02-21T06:14:04;97089.09;;;-0.64;100.00
57628;BME280;43451;49.060;10.616;2023-02-21T06:16:35;97089.16;;;-0.38;100.00
57628;BME280;43451;49.060;10.616;2023-02-21T06:19:01;97096.41;;;-0.13;100.00
57628;BME280;43451;49.060;10.616;2023-02-21T06:21:27;97094.06;;;-0.14;100.00
57628;BME280;43451;49.060;10.616;2023-02-21T06:23:53;97091.41;;;0.12;100.00
57628;BME280;43451;49.060;10.616;2023-02-21T06:26:19;97083.25;;;0.34;100.00
57628;BME280;43451;49.060;10.616;2023-02-21T06:28:45;97098.19;;;0.27;100.00
57628;BME280;43451;49.060;10.616;2023-02-21T06:31:11;97091.25;;;0.34;100.00
57628;BME280;43451;49.060;10.616;2023-02-21T06:33:36;97093.94;;;0.17;100.00
57628;BME280;43451;49.060;10.616;2023-02-21T06:36:04;97098.19;;;0.18;100.00
57628;BME280;43451;49.060;10.616;2023-02-21T06:38:29;97102.41;;;0.28;100.00
57628;BME280;43451;49.060;10.616;2023-02-21T06:40:55;97110.28;;;0.24;100.00
57628;BME280;43451;49.060;10.616;2023-02-21T06:43:20;97110.13;;;0.20;100.00
57628;BME280;43451;49.060;10.616;2023-02-21T06:45:46;97111.41;;;0.23;100.00
57628;BME280;43451;49.060;10.616;2023-02-21T06:48:15;97106.97;;;0.27;100.00
57628;BME280;43451;49.060;10.616;2023-02-21T06:50:41;97112.66;;;0.26;100.00
57628;BME280;43451;49.060;10.616;2023-02-21T06:53:07;97111.56;;;0.35;100.00
57628;BME280;43451;49.060;10.616;2023-02-21T06:55:33;97118.47;;;0.36;100.00
57628;BME280;43451;49.060;10.616;2023-02-21T06:57:58;97122.53;;;0.34;100.00
57628;BME280;43451;49.060;10.616;2023-02-21T07:00:24;97122.72;;;0.29;100.00
57628;BME280;43451;49.060;10.616;2023-02-21T07:02:51;97120.66;;;0.34;100.00
57628;BME280;43451;49.060;10.616;2023-02-21T07:05:17;97127.88;;;0.25;100.00
57628;BME280;43451;49.060;10.616;2023-02-21T07:07:42;97111.38;;;0.40;100.00
57628;BME280;43451;49.060;10.616;2023-02-21T07:10:08;97125.81;;;0.57;100.00
57628;BME280;43451;49.060;10.616;2023-02-21T07:12:34;97117.97;;;0.43;100.00
57628;BME280;43451;49.060;10.616;2023-02-21T07:14:59;97130.56;;;0.51;100.00
57628;BME280;43451;49.060;10.616;2023-02-21T07:17:25;97132.91;;;0.53;100.00
57628;BME280;43451;49.060;10.616;2023-02-21T07:19:50;97127.41;;;0.58;100.00
57628;BME280;43451;49.060;10.616;2023-02-21T07:22:16;97132.28;;;0.56;100.00
57628;BME280;43451;49.060;10.616;2023-02-21T07:24:43;97133.84;;;0.57;100.00
57628;BME280;43451;49.060;10.616;2023-02-21T07:27:08;97138.88;;;0.50;100.00
57628;BME280;43451;49.060;10.616;2023-02-21T07:29:34;97130.88;;;0.50;100.00
57628;BME280;43451;49.060;10.616;2023-02-21T07:31:59;97135.59;;;0.53;100.00
57628;BME280;43451;49.060;10.616;2023-02-21T07:34:25;97138.09;;;0.58;100.00
57628;BME280;43451;49.060;10.616;2023-02-21T07:36:50;97136.50;;;0.74;100.00
57628;BME280;43451;49.060;10.616;2023-02-21T07:39:16;97135.69;;;0.82;100.00
57628;BME280;43451;49.060;10.616;2023-02-21T07:41:41;97136.25;;;1.14;100.00
57628;BME280;43451;49.060;10.616;2023-02-21T07:44:07;97141.50;;;1.49;100.00
57628;BME280;43451;49.060;10.616;2023-02-21T07:46:33;97143.00;;;1.67;100.00
57628;BME280;43451;49.060;10.616;2023-02-21T07:48:59;97142.28;;;1.88;100.00
57628;BME280;43451;49.060;10.616;2023-02-21T07:51:29;97143.19;;;1.92;100.00
57628;BME280;43451;49.060;10.616;2023-02-21T07:53:55;97135.97;;;2.13;100.00
57628;BME280;43451;49.060;10.616;2023-02-21T07:56:22;97136.03;;;2.25;100.00
57628;BME280;43451;49.060;10.616;2023-02-21T07:58:47;97134.44;;;2.24;100.00
57628;BME280;43451;49.060;10.616;2023-02-21T08:01:14;97131.13;;;2.48;100.00
57628;BME280;43451;49.060;10.616;2023-02-21T08:03:39;97127.13;;;2.54;100.00
57628;BME280;43451;49.060;10.616;2023-02-21T08:06:07;97142.28;;;2.71;100.00
57628;BME280;43451;49.060;10.616;2023-02-21T08:08:33;97135.72;;;2.81;100.00
57628;BME280;43451;49.060;10.616;2023-02-21T08:10:58;97142.72;;;3.07;100.00
57628;BME280;43451;49.060;10.616;2023-02-21T08:13:24;97136.81;;;3.13;100.00
57628;BME280;43451;49.060;10.616;2023-02-21T08:15:49;97144.47;;;3.36;100.00
57628;BME280;43451;49.060;10.616;2023-02-21T08:18:17;97138.91;;;3.53;100.00
57628;BME280;43451;49.060;10.616;2023-02-21T08:20:45;97136.66;;;3.80;100.00
57628;BME280;43451;49.060;10.616;2023-02-21T08:23:10;97140.47;;;4.03;100.00
57628;BME280;43451;49.060;10.616;2023-02-21T08:25:36;97127.44;;;4.17;100.00
57628;BME280;43451;49.060;10.616;2023-02-21T08:28:01;97132.06;;;4.57;100.00
57628;BME280;43451;49.060;10.616;2023-02-21T08:30:27;97139.88;;;4.62;100.00
57628;BME280;43451;49.060;10.616;2023-02-21T08:32:52;97135.59;;;4.74;100.00
57628;BME280;43451;49.060;10.616;2023-02-21T08:35:19;97139.78;;;4.87;100.00
57628;BME280;43451;49.060;10.616;2023-02-21T08:37:47;97139.81;;;5.03;100.00
57628;BME280;43451;49.060;10.616;2023-02-21T08:40:13;97139.09;;;5.34;100.00
57628;BME280;43451;49.060;10.616;2023-02-21T08:42:39;97139.63;;;5.40;100.00
57628;BME280;43451;49.060;10.616;2023-02-21T08:45:05;97143.19;;;5.59;100.00
57628;BME280;43451;49.060;10.616;2023-02-21T08:47:33;97129.53;;;5.68;100.00
57628;BME280;43451;49.060;10.616;2023-02-21T08:50:00;97146.13;;;5.86;100.00
57628;BME280;43451;49.060;10.616;2023-02-21T08:52:25;97141.25;;;6.08;100.00
57628;BME280;43451;49.060;10.616;2023-02-21T08:54:51;97138.59;;;6.27;100.00
57628;BME280;43451;49.060;10.616;2023-02-21T08:57:16;97138.91;;;6.41;100.00
57628;BME280;43451;49.060;10.616;2023-02-21T08:59:43;97134.22;;;6.58;100.00
57628;BME280;43451;49.060;10.616;2023-02-21T09:02:17;97134.66;;;6.60;100.00
57628;BME280;43451;49.060;10.616;2023-02-21T09:04:43;97136.94;;;6.58;100.00
57628;BME280;43451;49.060;10.616;2023-02-21T09:07:11;97143.47;;;6.57;100.00
57628;BME280;43451;49.060;10.616;2023-02-21T09:09:37;97132.22;;;6.93;100.00
57628;BME280;43451;49.060;10.616;2023-02-21T09:12:03;97138.00;;;6.92;100.00
57628;BME280;43451;49.060;10.616;2023-02-21T09:14:33;97144.28;;;7.19;100.00
57628;BME280;43451;49.060;10.616;2023-02-21T09:16:58;97138.03;;;7.15;100.00
57628;BME280;43451;49.060;10.616;2023-02-21T09:19:24;97147.97;;;7.30;100.00
57628;BME280;43451;49.060;10.616;2023-02-21T09:21:49;97152.09;;;7.24;98.46
57628;BME280;43451;49.060;10.616;2023-02-21T09:24:19;97148.28;;;7.06;100.00
57628;BME280;43451;49.060;10.616;2023-02-21T09:26:58;97147.72;;;7.39;100.00
57628;BME280;43451;49.060;10.616;2023-02-21T09:29:25;97155.25;;;7.49;100.00
57628;BME280;43451;49.060;10.616;2023-02-21T09:31:51;97150.56;;;7.69;99.03
57628;BME280;43451;49.060;10.616;2023-02-21T09:34:16;97154.22;;;7.80;97.31
57628;BME280;43451;49.060;10.616;2023-02-21T09:36:42;97156.94;;;7.80;97.67
57628;BME280;43451;49.060;10.616;2023-02-21T09:39:08;97156.78;;;7.73;100.00
57628;BME280;43451;49.060;10.616;2023-02-21T09:41:35;97156.94;;;7.80;98.93
57628;BME280;43451;49.060;10.616;2023-02-21T09:44:02;97163.69;;;7.94;97.33
57628;BME280;43451;49.060;10.616;2023-02-21T09:46:47;97164.34;;;8.10;97.16
57628;BME280;43451;49.060;10.616;2023-02-21T09:49:23;97165.44;;;8.32;96.55
57628;BME280;43451;49.060;10.616;2023-02-21T09:51:50;97163.88;;;8.31;94.87
57628;BME280;43451;49.060;10.616;2023-02-21T09:54:37;97166.31;;;8.40;97.08
57628;BME280;43451;49.060;10.616;2023-02-21T09:57:05;97166.25;;;8.63;91.08
57628;BME280;43451;49.060;10.616;2023-02-21T09:59:31;97157.94;;;8.48;95.68
57628;BME280;43451;49.060;10.616;2023-02-21T10:05:08;97163.34;;;8.48;96.89
57628;BME280;43451;49.060;10.616;2023-02-21T10:08:33;97166.19;;;8.59;96.88
57628;BME280;43451;49.060;10.616;2023-02-21T10:10:57;97163.50;;;8.59;95.33
57628;BME280;43451;49.060;10.616;2023-02-21T10:13:42;97165.88;;;8.64;94.65
57628;BME280;43451;49.060;10.616;2023-02-21T10:16:24;97154.34;;;8.71;92.92
57628;BME280;43451;49.060;10.616;2023-02-21T10:19:06;97157.34;;;8.62;93.95
57628;BME280;43451;49.060;10.616;2023-02-21T10:21:41;97164.59;;;8.84;94.77
57628;BME280;43451;49.060;10.616;2023-02-21T10:24:11;97159.09;;;8.77;97.74
57628;BME280;43451;49.060;10.616;2023-02-21T10:26:38;97158.75;;;8.82;97.77
57628;BME280;43451;49.060;10.616;2023-02-21T10:29:38;97146.03;;;9.20;93.15
57628;BME280;43451;49.060;10.616;2023-02-21T10:32:07;97152.25;;;9.24;95.51
57628;BME280;43451;49.060;10.616;2023-02-21T10:34:33;97150.19;;;9.11;94.58
57628;BME280;43451;49.060;10.616;2023-02-21T10:37:10;97144.78;;;9.51;93.61
57628;BME280;43451;49.060;10.616;2023-02-21T10:39:46;97145.84;;;9.40;92.20
57628;BME280;43451;49.060;10.616;2023-02-21T10:42:19;97143.50;;;9.42;91.41
57628;BME280;43451;49.060;10.616;2023-02-21T10:44:51;97149.56;;;9.24;92.33
57628;BME280;43451;49.060;10.616;2023-02-21T10:50:43;97144.53;;;9.67;93.70
57628;BME280;43451;49.060;10.616;2023-02-21T10:53:38;97138.50;;;9.92;91.98
57628;BME280;43451;49.060;10.616;2023-02-21T10:56:24;97140.88;;;9.97;91.30
57628;BME280;43451;49.060;10.616;2023-02-21T11:03:56;97130.41;;;10.58;88.32
57628;BME280;43451;49.060;10.616;2023-02-21T11:08:47;97123.91;;;10.77;86.72
57628;BME280;43451;49.060;10.616;2023-02-21T11:11:12;97122.78;;;10.85;89.66
57628;BME280;43451;49.060;10.616;2023-02-21T11:13:38;97114.25;;;10.90;88.71
57628;BME280;43451;49.060;10.616;2023-02-21T11:16:16;97108.03;;;10.93;86.81
57628;BME280;43451;49.060;10.616;2023-02-21T11:18:42;97101.91;;;11.25;85.79
57628;BME280;43451;49.060;10.616;2023-02-21T11:21:16;97103.06;;;11.17;86.37
57628;BME280;43451;49.060;10.616;2023-02-21T11:23:53;97095.69;;;11.35;86.36
57628;BME280;43451;49.060;10.616;2023-02-21T11:26:23;97089.47;;;11.38;84.75
57628;BME280;43451;49.060;10.616;2023-02-21T11:28:51;97092.22;;;11.45;83.21
57628;BME280;43451;49.060;10.616;2023-02-21T11:31:37;97087.94;;;11.55;83.33
57628;BME280;43451;49.060;10.616;2023-02-21T11:34:07;97088.72;;;11.70;78.00
57628;BME280;43451;49.060;10.616;2023-02-21T11:36:36;97078.63;;;11.74;82.15
57628;BME280;43451;49.060;10.616;2023-02-21T11:39:05;97075.91;;;11.74;78.25
57628;BME280;43451;49.060;10.616;2023-02-21T11:41:58;97074.72;;;11.82;82.00
57628;BME280;43451;49.060;10.616;2023-02-21T11:44:36;97070.06;;;11.86;78.37
57628;BME280;43451;49.060;10.616;2023-02-21T11:47:20;97067.72;;;11.95;83.71
57628;BME280;43451;49.060;10.616;2023-02-21T11:50:25;97053.69;;;12.07;84.06
57628;BME280;43451;49.060;10.616;2023-02-21T11:53:24;97049.00;;;12.08;80.16
57628;BME280;43451;49.060;10.616;2023-02-21T11:56:00;97048.59;;;12.17;82.74
57628;BME280;43451;49.060;10.616;2023-02-21T12:01:10;97036.53;;;12.18;85.72
57628;BME280;43451;49.060;10.616;2023-02-21T12:16:22;97031.38;;;12.45;78.52
57628;BME280;43451;49.060;10.616;2023-02-21T12:19:08;97017.00;;;12.44;79.66
57628;BME280;43451;49.060;10.616;2023-02-21T12:21:52;97013.81;;;12.60;82.46
57628;BME280;43451;49.060;10.616;2023-02-21T12:27:30;97003.81;;;12.32;84.63
57628;BME280;43451;49.060;10.616;2023-02-21T12:32:54;96996.56;;;12.77;72.90
57628;BME280;43451;49.060;10.616;2023-02-21T12:40:31;96979.47;;;12.70;81.78
57628;BME280;43451;49.060;10.616;2023-02-21T12:50:39;96970.56;;;13.18;78.60
57628;BME280;43451;49.060;10.616;2023-02-21T12:53:12;96955.72;;;13.26;79.26
57628;BME280;43451;49.060;10.616;2023-02-21T12:58:45;96958.56;;;13.08;77.82
57628;BME280;43451;49.060;10.616;2023-02-21T13:01:30;96951.13;;;13.12;77.29
57628;BME280;43451;49.060;10.616;2023-02-21T13:06:51;96945.53;;;13.34;71.46
57628;BME280;43451;49.060;10.616;2023-02-21T13:11:55;96933.03;;;13.36;73.42
57628;BME280;43451;49.060;10.616;2023-02-21T13:17:11;96920.38;;;13.53;77.65
57628;BME280;43451;49.060;10.616;2023-02-21T13:22:44;96908.91;;;13.69;73.80
57628;BME280;43451;49.060;10.616;2023-02-21T13:25:48;96906.78;;;13.84;68.97
57628;BME280;43451;49.060;10.616;2023-02-21T13:28:20;96901.13;;;13.67;71.98
57628;BME280;43451;49.060;10.616;2023-02-21T13:30:52;96901.75;;;13.44;71.84
57628;BME280;43451;49.060;10.616;2023-02-21T13:33:51;96892.94;;;13.67;70.99
57628;BME280;43451;49.060;10.616;2023-02-21T13:39:14;96892.13;;;13.70;71.26
57628;BME280;43451;49.060;10.616;2023-02-21T13:58:22;96867.69;;;13.90;72.67
57628;BME280;43451;49.060;10.616;2023-02-21T14:08:13;96842.69;;;13.92;72.29
57628;BME280;43451;49.060;10.616;2023-02-21T14:10:45;96848.38;;;14.05;66.96
57628;BME280;43451;49.060;10.616;2023-02-21T14:15:55;96833.31;;;13.93;71.66
57628;BME280;43451;49.060;10.616;2023-02-21T14:18:31;96825.28;;;14.09;66.94
57628;BME280;43451;49.060;10.616;2023-02-21T14:21:14;96826.44;;;13.81;69.64
57628;BME280;43451;49.060;10.616;2023-02-21T14:23:45;96825.53;;;13.91;66.82
57628;BME280;43451;49.060;10.616;2023-02-21T14:31:51;96819.25;;;13.94;71.89
57628;BME280;43451;49.060;10.616;2023-02-21T14:39:51;96811.47;;;13.93;67.64
57628;BME280;43451;49.060;10.616;2023-02-21T14:51:08;96796.34;;;13.58;70.70
57628;BME280;43451;49.060;10.616;2023-02-21T15:02:26;96783.78;;;13.91;69.13
57628;BME280;43451;49.060;10.616;2023-02-21T15:10:27;96774.28;;;14.03;70.51
57628;BME280;43451;49.060;10.616;2023-02-21T15:12:58;96767.13;;;13.82;68.50
57628;BME280;43451;49.060;10.616;2023-02-21T15:15:39;96773.84;;;13.77;69.50
57628;BME280;43451;49.060;10.616;2023-02-21T15:18:11;96775.75;;;13.80;68.33
57628;BME280;43451;49.060;10.616;2023-02-21T15:20:43;96768.94;;;13.65;71.10
57628;BME280;43451;49.060;10.616;2023-02-21T15:25:34;96773.25;;;13.62;69.88
57628;BME280;43451;49.060;10.616;2023-02-21T15:28:01;96771.88;;;13.78;69.15
57628;BME280;43451;49.060;10.616;2023-02-21T15:33:04;96776.03;;;13.59;69.35
57628;BME280;43451;49.060;10.616;2023-02-21T15:35:36;96763.69;;;13.47;68.56
57628;BME280;43451;49.060;10.616;2023-02-21T15:38:08;96758.50;;;13.56;69.60
57628;BME280;43451;49.060;10.616;2023-02-21T15:40:35;96758.47;;;13.60;70.80
57628;BME280;43451;49.060;10.616;2023-02-21T15:43:02;96758.84;;;13.62;71.72
57628;BME280;43451;49.060;10.616;2023-02-21T15:45:32;96749.94;;;13.58;73.71
57628;BME280;43451;49.060;10.616;2023-02-21T15:47:59;96747.66;;;13.53;73.58
57628;BME280;43451;49.060;10.616;2023-02-21T15:50:37;96750.19;;;13.67;71.31
57628;BME280;43451;49.060;10.616;2023-02-21T15:53:29;96744.25;;;13.72;66.94
57628;BME280;43451;49.060;10.616;2023-02-21T15:56:16;96753.38;;;13.62;67.00